createdAt,value
2022-07-30T00:04:11.516Z,20.80
2022-07-30T00:09:17.476Z,20.70
2022-07-30T00:14:21.178Z,20.70
2022-07-30T00:19:26.265Z,20.60
2022-07-30T00:24:30.278Z,20.60
2022-07-30T00:29:34.114Z,20.50
2022-07-30T00:34:40.082Z,20.50
2022-07-30T00:39:43.753Z,20.40
2022-07-30T00:44:47.526Z,20.40
2022-07-30T00:49:52.617Z,20.30
2022-07-30T00:54:59.647Z,20.30
2022-07-30T01:00:05.175Z,20.20
2022-07-30T01:05:13.386Z,20.20
2022-07-30T01:10:22.482Z,20.10
2022-07-30T01:15:29.748Z,20.10
2022-07-30T01:20:38.685Z,20.00
2022-07-30T01:26:01.809Z,20.00
2022-07-30T01:31:09.139Z,20.00
2022-07-30T01:36:15.829Z,19.90
2022-07-30T01:41:30.633Z,19.90
2022-07-30T01:46:36.231Z,19.80
2022-07-30T01:51:40.766Z,19.80
2022-07-30T01:56:50.698Z,19.80
2022-07-30T02:01:54.819Z,19.70
2022-07-30T02:07:07.540Z,19.70
2022-07-30T02:12:29.887Z,19.70
2022-07-30T02:17:45.470Z,19.60
2022-07-30T02:22:51.277Z,19.60
2022-07-30T02:28:01.525Z,19.50
2022-07-30T02:33:10.619Z,19.50
2022-07-30T02:38:17.697Z,19.50
2022-07-30T02:43:26.089Z,19.50
2022-07-30T02:48:34.963Z,19.40
2022-07-30T02:53:41.593Z,19.40
2022-07-30T02:58:51.337Z,19.40
2022-07-30T03:03:59.361Z,19.30
2022-07-30T03:09:05.488Z,19.30
2022-07-30T03:14:11.265Z,19.20
2022-07-30T03:19:16.980Z,19.20
2022-07-30T03:24:24.457Z,19.20
2022-07-30T03:29:30.937Z,19.10
2022-07-30T03:34:35.513Z,19.10
2022-07-30T03:39:40.148Z,19.10
2022-07-30T03:44:46.584Z,19.00
2022-07-30T03:49:52.415Z,19.00
2022-07-30T03:54:56.403Z,19.00
2022-07-30T04:00:18.269Z,18.90
2022-07-30T04:05:26.874Z,18.90
2022-07-30T04:10:33.774Z,18.80
2022-07-30T04:16:05.968Z,18.80
2022-07-30T04:21:17.316Z,18.70
2022-07-30T04:26:23.420Z,18.70
2022-07-30T04:31:29.955Z,18.60
2022-07-30T04:36:41.330Z,18.50
2022-07-30T04:41:48.978Z,18.50
2022-07-30T04:47:12.095Z,18.50
2022-07-30T04:52:29.407Z,18.40
2022-07-30T04:57:37.289Z,18.30
2022-07-30T05:02:44.418Z,18.30
2022-07-30T05:07:48.723Z,18.30
2022-07-30T05:12:52.820Z,18.30
2022-07-30T05:18:00.346Z,18.30
2022-07-30T05:23:05.067Z,18.30
2022-07-30T05:28:08.928Z,18.30
2022-07-30T05:33:16.060Z,18.30
2022-07-30T05:38:20.837Z,18.30
2022-07-30T05:44:01.197Z,18.30
2022-07-30T05:49:06.870Z,18.30
2022-07-30T05:54:10.994Z,18.40
2022-07-30T05:59:34.999Z,18.40
2022-07-30T06:04:46.259Z,18.50
2022-07-30T06:09:50.348Z,18.50
2022-07-30T06:14:54.081Z,18.50
2022-07-30T06:20:05.501Z,18.50
2022-07-30T06:25:20.545Z,18.60
2022-07-30T06:30:30.216Z,18.60
2022-07-30T06:35:36.759Z,18.60
2022-07-30T06:40:41.147Z,18.60
2022-07-30T06:45:54.803Z,18.70
2022-07-30T06:51:07.742Z,18.70
2022-07-30T06:56:12.956Z,18.80
2022-07-30T07:01:33.618Z,18.90
2022-07-30T07:06:39.433Z,18.90
2022-07-30T07:11:44.170Z,19.00
2022-07-30T07:16:50.845Z,19.10
2022-07-30T07:22:14.175Z,19.20
2022-07-30T07:27:21.145Z,19.30
2022-07-30T07:32:27.462Z,19.30
2022-07-30T07:37:32.613Z,19.40
2022-07-30T07:42:36.374Z,19.40
2022-07-30T07:47:52.024Z,19.40
2022-07-30T07:53:17.271Z,19.50
2022-07-30T07:58:25.445Z,19.60
2022-07-30T08:03:33.567Z,19.70
2022-07-30T08:08:45.950Z,19.70
2022-07-30T08:14:23.686Z,19.80
2022-07-30T08:19:45.779Z,19.90
2022-07-30T08:24:56.607Z,19.90
2022-07-30T08:30:00.354Z,20.00
2022-07-30T08:35:04.329Z,20.10
2022-07-30T08:40:11.796Z,20.20
2022-07-30T08:45:34.727Z,20.30
2022-07-30T08:50:51.896Z,20.40
2022-07-30T08:56:13.098Z,20.50
2022-07-30T09:01:16.987Z,20.60
2022-07-30T09:06:20.948Z,20.70
2022-07-30T09:11:26.206Z,20.80
2022-07-30T09:16:29.820Z,20.90
2022-07-30T09:21:35.992Z,21.00
2022-07-30T09:27:01.396Z,21.10
2022-07-30T09:32:25.638Z,21.30
2022-07-30T09:38:04.403Z,21.40
2022-07-30T09:43:30.066Z,21.60
2022-07-30T09:48:47.489Z,21.70
2022-07-30T09:53:56.005Z,21.90
2022-07-30T09:59:03.333Z,22.10
2022-07-30T10:04:08.369Z,22.20
2022-07-30T10:09:42.621Z,22.30
2022-07-30T10:14:54.026Z,22.40
2022-07-30T10:19:58.126Z,22.50
2022-07-30T10:25:28.167Z,22.70
2022-07-30T10:30:52.865Z,22.80
2022-07-30T10:35:57.500Z,23.00
2022-07-30T10:41:09.130Z,23.10
2022-07-30T10:46:27.091Z,23.20
2022-07-30T10:51:46.582Z,23.30
2022-07-30T10:57:05.140Z,23.30
2022-07-30T11:02:11.362Z,23.30
2022-07-30T11:07:31.634Z,23.30
2022-07-30T11:12:56.261Z,23.30
2022-07-30T11:18:04.944Z,23.30
2022-07-30T11:23:40.573Z,23.30
2022-07-30T11:28:50.076Z,23.30
2022-07-30T11:34:15.746Z,23.30
2022-07-30T11:39:20.859Z,23.40
2022-07-30T11:44:33.412Z,23.40
2022-07-30T11:49:37.454Z,23.40
2022-07-30T11:54:54.137Z,23.50
2022-07-30T11:59:58.059Z,23.50
2022-07-30T12:05:01.739Z,23.50
2022-07-30T12:10:26.930Z,23.50
2022-07-30T12:15:33.295Z,23.50
2022-07-30T12:20:37.148Z,23.50
2022-07-30T12:25:47.684Z,23.50
2022-07-30T12:30:56.624Z,23.50
2022-07-30T12:36:01.435Z,23.50
2022-07-30T12:41:06.955Z,23.50
2022-07-30T12:46:14.770Z,23.50
2022-07-30T12:51:19.203Z,23.70
2022-07-30T12:56:26.713Z,23.80
2022-07-30T13:01:43.863Z,23.80
2022-07-30T13:07:06.605Z,23.90
2022-07-30T13:12:15.254Z,24.00
2022-07-30T13:17:19.879Z,24.10
2022-07-30T13:22:23.647Z,24.20
2022-07-30T13:27:28.984Z,24.20
2022-07-30T13:32:33.145Z,24.20
2022-07-30T13:37:38.219Z,24.20
2022-07-30T13:42:43.748Z,24.20
2022-07-30T13:47:48.490Z,24.30
2022-07-30T13:52:52.173Z,24.20
2022-07-30T13:57:57.276Z,24.30
2022-07-30T14:03:01.869Z,24.40
2022-07-30T14:08:07.813Z,24.40
2022-07-30T14:13:21.146Z,24.40
2022-07-30T14:18:25.185Z,24.40
2022-07-30T14:23:29.233Z,24.40
2022-07-30T14:28:34.422Z,24.50
2022-07-30T14:33:38.429Z,24.50
2022-07-30T14:38:42.078Z,24.60
2022-07-30T14:43:47.130Z,24.60
2022-07-30T14:48:51.373Z,24.60
2022-07-30T14:53:55.185Z,24.60
2022-07-30T14:59:01.898Z,24.60
2022-07-30T15:04:09.445Z,24.60
2022-07-30T15:09:13.153Z,24.60
2022-07-30T15:14:19.924Z,24.60
2022-07-30T15:19:26.803Z,24.50
2022-07-30T15:24:30.673Z,24.50
2022-07-30T15:29:35.783Z,24.50
2022-07-30T15:34:39.429Z,24.50
2022-07-30T15:39:46.223Z,24.50
2022-07-30T15:45:15.542Z,24.40
2022-07-30T15:50:16.821Z,24.40
2022-07-30T15:55:20.682Z,24.40
2022-07-30T16:00:26.604Z,24.30
2022-07-30T16:05:51.453Z,24.30
2022-07-30T16:10:57.194Z,24.30
2022-07-30T16:16:02.501Z,24.30
2022-07-30T16:21:09.406Z,24.20
2022-07-30T16:26:16.757Z,24.30
2022-07-30T16:31:25.445Z,24.20
2022-07-30T16:36:30.265Z,24.20
2022-07-30T16:41:33.961Z,24.20
2022-07-30T16:46:48.355Z,24.20
2022-07-30T16:51:54.040Z,24.20
2022-07-30T16:56:57.969Z,24.10
2022-07-30T17:02:08.562Z,24.10
2022-07-30T17:07:13.433Z,24.10
2022-07-30T17:12:17.207Z,24.10
2022-07-30T17:17:32.145Z,24.10
2022-07-30T17:22:42.966Z,24.10
2022-07-30T17:27:47.129Z,24.10
2022-07-30T17:32:52.796Z,24.00
2022-07-30T17:37:57.686Z,24.00
2022-07-30T17:43:04.909Z,24.00
2022-07-30T17:48:10.613Z,23.90
2022-07-30T17:53:14.732Z,23.90
2022-07-30T17:58:18.583Z,23.90
2022-07-30T18:03:27.660Z,23.90
2022-07-30T18:08:32.945Z,23.90
2022-07-30T18:13:36.802Z,23.90
2022-07-30T18:18:41.945Z,23.80
2022-07-30T18:23:45.642Z,23.80
2022-07-30T18:28:50.856Z,23.80
2022-07-30T18:33:56.010Z,23.70
2022-07-30T18:38:59.732Z,23.70
2022-07-30T18:44:03.463Z,23.70
2022-07-30T18:49:33.951Z,23.70
2022-07-30T18:54:32.280Z,23.70
2022-07-30T18:59:36.258Z,23.60
2022-07-30T19:04:41.345Z,23.60
2022-07-30T19:09:46.061Z,23.60
2022-07-30T19:14:49.937Z,23.60
2022-07-30T19:19:55.077Z,23.50
2022-07-30T19:24:58.877Z,23.50
2022-07-30T19:30:03.630Z,23.50
2022-07-30T19:35:13.336Z,23.50
2022-07-30T19:40:18.830Z,23.40
2022-07-30T19:45:22.530Z,23.40
2022-07-30T19:50:29.115Z,23.40
2022-07-30T19:55:35.756Z,23.40
2022-07-30T20:00:39.711Z,23.30
2022-07-30T20:05:57.276Z,23.30
2022-07-30T20:11:03.441Z,23.30
2022-07-30T20:16:12.233Z,23.20
2022-07-30T20:21:17.449Z,23.20
2022-07-30T20:26:24.111Z,23.20
2022-07-30T20:31:31.216Z,23.20
2022-07-30T20:36:37.333Z,23.20
2022-07-30T20:41:41.035Z,23.20
2022-07-30T20:46:44.794Z,23.10
2022-07-30T20:51:51.605Z,23.10
2022-07-30T20:56:55.440Z,23.10
2022-07-30T21:01:59.947Z,23.10
2022-07-30T21:07:05.305Z,23.10
2022-07-30T21:12:09.213Z,23.00
2022-07-30T21:17:16.212Z,23.00
2022-07-30T21:22:23.103Z,23.00
2022-07-30T21:27:30.588Z,23.00
2022-07-30T21:32:34.318Z,23.00
2022-07-30T21:37:42.893Z,22.90
2022-07-30T21:42:48.184Z,22.90
2022-07-30T21:47:52.717Z,22.80
2022-07-30T21:52:57.848Z,22.80
2022-07-30T21:58:02.285Z,22.70
2022-07-30T22:03:12.669Z,22.70
2022-07-30T22:08:33.053Z,22.60
2022-07-30T22:13:51.257Z,22.60
2022-07-30T22:18:57.838Z,22.50
2022-07-30T22:24:03.122Z,22.50
2022-07-30T22:29:06.811Z,22.40
2022-07-30T22:34:13.098Z,22.40
2022-07-30T22:39:22.017Z,22.40
2022-07-30T22:44:26.201Z,22.30
2022-07-30T22:49:45.431Z,22.30
2022-07-30T22:54:55.411Z,22.30
2022-07-30T23:00:00.698Z,22.20
2022-07-30T23:05:06.749Z,22.20
2022-07-30T23:10:18.067Z,22.10
2022-07-30T23:15:22.673Z,22.10
2022-07-30T23:20:26.520Z,22.10
2022-07-30T23:25:34.548Z,22.00
2022-07-30T23:30:42.475Z,22.00
2022-07-30T23:35:46.717Z,22.00
2022-07-30T23:40:51.860Z,21.90
2022-07-30T23:45:55.721Z,21.90
2022-07-30T23:50:59.913Z,21.90
2022-07-30T23:56:05.361Z,21.80
